Rabb, Texas
Current Conditions -  °F | °C
As of 8:15 AM on Saturday 20 Dec 2014 (Local Time) from KRBO Reporting Station
Haze Haze  
Wind Chill: 11°   Ceiling: 700
Heat Index: 11°   Visibility: 5mi
Dew Point: 11°   Wind: 17mph
Humidity: 94%   Direction: 10°N
Pressure: 30.17"   Gusts: NA
Location:  27.7757°N, 97.7554°W
Report Text: KRBO 201415Z AUTO 01015KT 5SM BR OVC007 12/11 A3017 RMK AO2 T01150105
Loading
Personal Weather Stations






























Interactive Weather Map New forecast layout! Learn more

10-Day Weather Forecast

Advertisements
Track Severe Weather on mobile